Time;durP1;ratioP1;P1;durP2;ratioP2;P2;SDS_P1;SDS_P2;PMS_P1;PMS_P2;Temp;Humidity;BMP_temperature;BMP_pressure;BME280_temperature;BME280_humidity;BME280_pressure;Samples;Min_cycle;Max_cycle;Signal;HPM_P1;HPM_P2
2021/04/23 00:01:42;;;;;;;8.18;2.58;;;9.80;39.10;;;;;;5152241;27;20023;-69
2021/04/23 00:04:08;;;;;;;5.68;2.42;;;9.70;38.80;;;;;;5156352;27;20413;-69
2021/04/23 00:06:49;;;;;;;10.07;2.97;;;9.70;39.00;;;;;;5151747;27;20076;-69
2021/04/23 00:09:16;;;;;;;8.30;2.92;;;9.70;39.70;;;;;;5136466;27;20028;-69
2021/04/23 00:11:56;;;;;;;6.10;2.45;;;9.60;39.30;;;;;;5133920;27;20027;-69
2021/04/23 00:14:27;;;;;;;7.78;2.38;;;9.60;39.50;;;;;;5135487;27;20033;-68
2021/04/23 00:16:55;;;;;;;9.63;2.53;;;9.50;39.30;;;;;;5135069;27;20047;-68
2021/04/23 00:19:24;;;;;;;7.28;2.75;;;9.50;39.30;;;;;;5137340;27;20106;-69
2021/04/23 00:21:51;;;;;;;9.48;3.03;;;9.40;40.30;;;;;;5147449;27;20050;-68
2021/04/23 00:24:17;;;;;;;6.82;2.15;;;9.40;40.40;;;;;;5134585;27;20504;-68
2021/04/23 00:26:44;;;;;;;9.65;2.88;;;9.40;40.20;;;;;;5134924;27;20050;-68
2021/04/23 00:29:10;;;;;;;5.47;2.25;;;9.30;40.50;;;;;;5135034;27;20499;-68
2021/04/23 00:31:38;;;;;;;9.82;2.60;;;9.30;40.30;;;;;;5129689;27;20027;-68
2021/04/23 00:34:04;;;;;;;5.55;2.22;;;9.20;40.20;;;;;;5125236;27;20464;-68
2021/04/23 00:36:30;;;;;;;13.43;3.38;;;9.20;40.40;;;;;;5134781;27;20031;-68
2021/04/23 00:38:56;;;;;;;6.40;2.25;;;9.20;40.80;;;;;;5135642;27;20548;-68
2021/04/23 00:41:27;;;;;;;10.63;3.45;;;9.10;40.50;;;;;;5138355;27;20027;-68
2021/04/23 00:43:58;;;;;;;7.57;2.63;;;9.10;41.10;;;;;;5135885;27;20024;-66
2021/04/23 00:46:26;;;;;;;8.73;2.97;;;9.10;41.70;;;;;;5134783;27;20019;-67
2021/04/23 00:48:53;;;;;;;6.05;2.55;;;9.00;41.60;;;;;;5134439;27;20480;-67
2021/04/23 00:51:24;;;;;;;7.45;2.92;;;9.00;41.50;;;;;;5134189;27;20053;-68
2021/04/23 00:53:51;;;;;;;6.72;2.30;;;9.00;42.60;;;;;;5134632;27;20019;-68
2021/04/23 00:56:24;;;;;;;8.32;2.42;;;9.00;41.60;;;;;;5133793;27;20031;-67
2021/04/23 00:58:51;;;;;;;9.80;2.67;;;8.90;41.50;;;;;;5134447;27;20023;-68
2021/04/23 01:01:42;;;;;;;9.68;2.70;;;8.90;41.50;;;;;;5134510;27;20031;-67
2021/04/23 01:04:11;;;;;;;6.70;2.50;;;8.80;41.70;;;;;;5113963;28;20157;-67
2021/04/23 01:06:38;;;;;;;7.95;2.97;;;8.80;41.40;;;;;;5113791;28;20028;-67
2021/04/23 01:09:19;;;;;;;9.75;2.75;;;8.80;41.70;;;;;;5130983;27;20045;-67
2021/04/23 01:11:46;;;;;;;11.63;3.72;;;8.80;41.90;;;;;;5134519;27;20491;-68
2021/04/23 01:14:12;;;;;;;8.63;2.55;;;8.70;42.20;;;;;;5134144;27;20076;-67
2021/04/23 01:16:40;;;;;;;13.68;3.38;;;8.60;42.00;;;;;;5134266;27;20030;-67
2021/04/23 01:19:09;;;;;;;8.85;2.90;;;8.60;42.40;;;;;;5132624;27;20055;-67
2021/04/23 01:21:35;;;;;;;5.72;2.22;;;8.60;42.50;;;;;;5133868;27;20030;-67
2021/04/23 01:24:03;;;;;;;6.63;2.13;;;8.50;42.30;;;;;;5132660;27;20027;-67
2021/04/23 01:26:33;;;;;;;4.07;2.08;;;8.50;42.40;;;;;;5136775;27;20031;-67
2021/04/23 01:28:59;;;;;;;11.15;3.13;;;8.50;42.50;;;;;;5139047;27;20031;-67
2021/04/23 01:31:30;;;;;;;10.10;3.08;;;8.50;43.10;;;;;;5134773;27;20035;-67
2021/04/23 01:34:03;;;;;;;5.82;2.80;;;8.50;43.10;;;;;;5132658;27;20027;-67
2021/04/23 01:36:29;;;;;;;9.65;3.08;;;8.40;42.90;;;;;;5139264;27;20023;-67
2021/04/23 01:38:55;;;;;;;6.45;2.40;;;8.40;42.90;;;;;;5154337;27;20514;-67
2021/04/23 01:41:21;;;;;;;6.10;2.30;;;8.40;42.90;;;;;;5154666;27;20026;-67
2021/04/23 01:43:50;;;;;;;9.35;3.47;;;8.40;42.90;;;;;;5134877;27;20400;-67
2021/04/23 01:46:17;;;;;;;14.20;3.25;;;8.30;43.10;;;;;;5113411;28;20385;-67
2021/04/23 01:48:43;;;;;;;5.47;2.65;;;8.30;43.30;;;;;;5113454;28;20019;-67
2021/04/23 01:51:13;;;;;;;6.68;2.78;;;8.20;43.20;;;;;;5127298;28;20381;-67
2021/04/23 01:53:40;;;;;;;7.68;2.70;;;8.20;43.30;;;;;;5133858;27;20035;-67
2021/04/23 01:56:06;;;;;;;10.80;3.42;;;8.20;44.00;;;;;;5133643;27;20023;-67
2021/04/23 01:58:34;;;;;;;13.95;4.10;;;8.10;44.90;;;;;;5133420;27;20030;-67
2021/04/23 02:01:01;;;;;;;14.32;3.92;;;8.10;45.90;;;;;;5154321;27;20046;-68
2021/04/23 02:03:27;;;;;;;11.48;2.85;;;8.10;46.50;;;;;;5154404;27;20030;-67
2021/04/23 02:05:54;;;;;;;12.75;3.55;;;8.10;46.80;;;;;;5149448;27;20019;-67
2021/04/23 02:08:22;;;;;;;10.48;3.67;;;8.10;46.30;;;;;;5133713;27;20076;-67
2021/04/23 02:10:59;;;;;;;11.75;3.25;;;8.10;46.10;;;;;;5133712;27;20023;-68
2021/04/23 02:13:27;;;;;;;10.48;3.45;;;8.10;46.10;;;;;;5133644;27;20103;-67
2021/04/23 02:15:53;;;;;;;8.55;2.83;;;8.10;46.00;;;;;;5133427;27;20011;-67
2021/04/23 02:18:21;;;;;;;7.35;2.53;;;8.10;45.60;;;;;;5133536;27;20548;-68
2021/04/23 02:20:49;;;;;;;6.38;3.22;;;8.00;45.40;;;;;;5139582;27;20023;-67
2021/04/23 02:23:16;;;;;;;8.27;2.63;;;8.00;45.50;;;;;;5129996;28;20417;-67
2021/04/23 02:25:42;;;;;;;8.13;2.85;;;8.00;45.50;;;;;;5133465;27;20496;-67
2021/04/23 02:28:11;;;;;;;8.30;2.67;;;8.00;45.40;;;;;;5133345;27;20015;-67
2021/04/23 02:30:42;;;;;;;15.80;3.78;;;7.90;45.60;;;;;;5134273;27;20023;-67
2021/04/23 02:33:11;;;;;;;11.25;2.70;;;7.90;45.80;;;;;;5133491;27;20114;-67
2021/04/23 02:35:37;;;;;;;7.45;2.85;;;7.90;45.70;;;;;;5132120;28;20146;-67
2021/04/23 02:38:04;;;;;;;8.65;3.13;;;7.80;45.70;;;;;;5133453;27;20027;-67
2021/04/23 02:40:31;;;;;;;7.63;2.92;;;7.80;46.10;;;;;;5133210;27;20027;-67
2021/04/23 02:43:00;;;;;;;7.78;2.60;;;7.80;46.00;;;;;;5133436;27;20468;-67
2021/04/23 02:45:30;;;;;;;9.70;3.60;;;7.80;46.10;;;;;;5133396;27;20019;-68
2021/04/23 02:47:56;;;;;;;10.57;2.90;;;7.70;46.70;;;;;;5135312;27;20027;-67
2021/04/23 02:50:25;;;;;;;10.52;3.88;;;7.70;46.50;;;;;;5136676;27;20020;-68
2021/04/23 02:52:51;;;;;;;10.88;3.72;;;7.70;47.10;;;;;;5136697;27;20031;-68
2021/04/23 02:55:19;;;;;;;7.32;3.40;;;7.70;47.30;;;;;;5135619;27;20027;-68
2021/04/23 02:57:58;;;;;;;9.13;3.28;;;7.70;47.20;;;;;;5136869;27;20076;-68
2021/04/23 03:00:27;;;;;;;7.63;3.05;;;7.70;47.40;;;;;;5136689;27;20392;-68
2021/04/23 03:02:53;;;;;;;7.63;3.17;;;7.70;47.20;;;;;;5136744;27;20031;-68
2021/04/23 03:05:21;;;;;;;7.90;3.38;;;7.60;47.20;;;;;;5136742;27;20023;-68
2021/04/23 03:07:50;;;;;;;5.50;2.80;;;7.60;47.40;;;;;;5136631;27;20166;-68
2021/04/23 03:10:17;;;;;;;9.35;3.58;;;7.60;47.20;;;;;;5136663;27;20083;-68
2021/04/23 03:12:42;;;;;;;12.90;3.70;;;7.60;47.60;;;;;;5136421;27;20023;-68
2021/04/23 03:15:09;;;;;;;10.63;3.72;;;7.60;47.80;;;;;;5139455;27;20479;-68
2021/04/23 03:17:36;;;;;;;14.15;4.25;;;7.60;48.00;;;;;;5157103;27;20516;-68
2021/04/23 03:20:09;;;;;;;11.25;4.55;;;7.60;48.40;;;;;;5157003;27;20468;-68
2021/04/23 03:22:35;;;;;;;7.50;3.45;;;7.60;48.40;;;;;;5141223;27;20377;-68
2021/04/23 03:25:00;;;;;;;8.20;2.85;;;7.50;48.10;;;;;;5136265;27;20019;-67
2021/04/23 03:27:26;;;;;;;7.28;3.03;;;7.60;47.90;;;;;;5126329;27;20028;-67
2021/04/23 03:29:52;;;;;;;9.73;3.65;;;7.50;48.00;;;;;;5115535;27;20028;-68
2021/04/23 03:32:18;;;;;;;7.78;3.58;;;7.50;48.30;;;;;;5137175;27;20365;-67
2021/04/23 03:34:44;;;;;;;13.55;4.60;;;7.50;48.60;;;;;;5136065;27;20030;-68
2021/04/23 03:37:09;;;;;;;7.85;3.20;;;7.50;48.80;;;;;;5135996;27;20027;-68
2021/04/23 03:39:35;;;;;;;6.70;3.45;;;7.40;48.50;;;;;;5135815;27;20034;-68
2021/04/23 03:42:01;;;;;;;10.82;4.28;;;7.40;48.50;;;;;;5134608;27;20026;-68
2021/04/23 03:44:27;;;;;;;6.32;3.50;;;7.30;48.40;;;;;;5135969;27;20027;-68
2021/04/23 03:46:53;;;;;;;13.73;3.67;;;7.30;48.50;;;;;;5135854;27;20077;-68
2021/04/23 03:49:19;;;;;;;12.10;3.83;;;7.30;48.60;;;;;;5135881;27;20102;-67
2021/04/23 03:51:45;;;;;;;10.23;4.10;;;7.30;48.70;;;;;;5135412;27;20135;-68
2021/04/23 03:54:11;;;;;;;10.23;4.03;;;7.30;48.80;;;;;;5154886;27;20031;-67
2021/04/23 03:56:37;;;;;;;7.45;3.53;;;7.20;48.70;;;;;;5156342;27;20153;-68
2021/04/23 03:59:03;;;;;;;6.40;3.30;;;7.20;48.90;;;;;;5155273;27;20075;-68
2021/04/23 04:01:34;;;;;;;6.53;3.28;;;7.20;48.80;;;;;;5156324;27;20014;-67
2021/04/23 04:03:59;;;;;;;14.95;4.25;;;7.20;49.00;;;;;;5156225;27;20467;-68
2021/04/23 04:06:25;;;;;;;10.57;3.25;;;7.20;49.30;;;;;;5154810;27;20110;-68
2021/04/23 04:08:52;;;;;;;7.63;3.38;;;7.20;49.20;;;;;;5154784;27;20413;-68
2021/04/23 04:11:19;;;;;;;7.97;3.53;;;7.20;49.10;;;;;;5149874;27;20019;-68
2021/04/23 04:13:44;;;;;;;11.15;4.57;;;7.20;49.10;;;;;;5135301;27;20054;-68
2021/04/23 04:16:10;;;;;;;8.05;3.42;;;7.20;49.10;;;;;;5135313;27;20476;-67
2021/04/23 04:18:36;;;;;;;11.88;3.60;;;7.20;49.20;;;;;;5135124;27;20023;-68
2021/04/23 04:21:03;;;;;;;13.60;3.40;;;7.20;49.10;;;;;;5141009;27;20015;-68
2021/04/23 04:23:28;;;;;;;7.75;3.20;;;7.20;49.30;;;;;;5155913;27;20022;-68
2021/04/23 04:25:57;;;;;;;12.02;3.45;;;7.20;49.10;;;;;;5137997;27;20098;-68
2021/04/23 04:28:24;;;;;;;17.63;4.55;;;7.20;49.30;;;;;;5114508;28;20103;-68
2021/04/23 04:30:51;;;;;;;8.95;3.50;;;7.20;49.30;;;;;;5123448;27;20046;-67
2021/04/23 04:33:17;;;;;;;18.83;5.55;;;7.20;49.30;;;;;;5134904;27;20027;-68
2021/04/23 04:35:44;;;;;;;16.58;6.18;;;7.20;49.80;;;;;;5134401;27;20071;-67
2021/04/23 04:38:12;;;;;;;14.45;4.97;;;7.20;49.70;;;;;;5134724;27;20081;-68
2021/04/23 04:40:40;;;;;;;18.13;6.00;;;7.30;49.70;;;;;;5133421;27;20019;-68
2021/04/23 04:43:07;;;;;;;19.23;5.72;;;7.40;49.70;;;;;;5134695;27;20614;-68
2021/04/23 04:45:33;;;;;;;14.38;5.00;;;7.40;49.60;;;;;;5134632;27;20048;-68
2021/04/23 04:47:59;;;;;;;22.33;6.03;;;7.50;49.70;;;;;;5134620;27;20019;-68
2021/04/23 04:50:33;;;;;;;15.90;4.70;;;7.50;49.50;;;;;;5151404;27;20063;-68
2021/04/23 04:53:00;;;;;;;22.50;5.30;;;7.60;49.60;;;;;;5155385;27;20061;-68
2021/04/23 04:55:28;;;;;;;17.52;4.95;;;7.60;49.80;;;;;;5155147;27;20022;-68
2021/04/23 04:57:56;;;;;;;21.17;5.25;;;7.70;50.30;;;;;;5155201;27;20026;-68
2021/04/23 05:00:22;;;;;;;20.30;5.10;;;7.70;50.20;;;;;;5154859;27;20540;-68
2021/04/23 05:02:48;;;;;;;12.88;4.35;;;7.80;50.00;;;;;;5135713;27;20031;-68
2021/04/23 05:05:15;;;;;;;22.42;4.75;;;7.90;50.00;;;;;;5133907;27;20067;-67
2021/04/23 05:07:41;;;;;;;25.00;6.15;;;7.90;49.80;;;;;;5132940;27;20032;-68
2021/04/23 05:10:08;;;;;;;16.58;4.72;;;8.00;50.00;;;;;;5133951;27;20034;-68
2021/04/23 05:12:35;;;;;;;25.90;5.78;;;8.00;49.90;;;;;;5134040;27;20099;-68
2021/04/23 05:15:00;;;;;;;21.95;4.78;;;8.10;49.70;;;;;;5137345;27;20437;-68
2021/04/23 05:17:26;;;;;;;11.73;4.47;;;8.20;49.70;;;;;;5154847;27;20080;-68
2021/04/23 05:19:52;;;;;;;17.20;4.57;;;8.20;49.50;;;;;;5154713;27;20361;-68
2021/04/23 05:22:18;;;;;;;38.42;6.10;;;8.30;49.40;;;;;;5154777;27;20467;-68
2021/04/23 05:24:43;;;;;;;15.73;4.75;;;8.40;49.40;;;;;;5132884;27;20023;-68
2021/04/23 05:27:09;;;;;;;20.92;4.75;;;8.40;49.40;;;;;;5113423;28;20020;-68
2021/04/23 05:29:35;;;;;;;11.63;3.97;;;8.50;49.30;;;;;;5126648;27;20049;-68
2021/04/23 05:32:02;;;;;;;17.48;4.32;;;8.50;49.20;;;;;;5152768;27;20058;-68
2021/04/23 05:34:29;;;;;;;22.05;5.03;;;8.60;49.30;;;;;;5150458;27;20062;-68
2021/04/23 05:36:55;;;;;;;22.95;4.53;;;8.70;49.20;;;;;;5134706;27;20150;-68
2021/04/23 05:39:22;;;;;;;13.40;4.97;;;8.80;49.10;;;;;;5132417;27;20023;-68
2021/04/23 05:41:48;;;;;;;14.43;4.85;;;8.80;49.10;;;;;;5134051;27;20015;-69
2021/04/23 05:44:13;;;;;;;20.23;5.03;;;8.90;49.10;;;;;;5133936;27;20400;-68
2021/04/23 05:46:39;;;;;;;11.77;4.85;;;8.90;49.00;;;;;;5133971;27;20431;-68
2021/04/23 05:49:06;;;;;;;21.17;4.65;;;8.90;49.10;;;;;;5133813;27;20019;-68
2021/04/23 05:51:33;;;;;;;17.17;5.03;;;9.00;49.10;;;;;;5133629;27;20082;-68
2021/04/23 05:53:59;;;;;;;11.90;3.78;;;9.00;48.80;;;;;;5133827;27;20126;-68
2021/04/23 05:56:25;;;;;;;9.60;3.83;;;9.10;48.40;;;;;;5133768;27;20103;-68
2021/04/23 05:58:53;;;;;;;22.70;4.85;;;9.20;48.30;;;;;;5133328;27;20167;-68
2021/04/23 06:01:19;;;;;;;17.60;5.07;;;9.20;48.90;;;;;;5140938;27;20476;-68
2021/04/23 06:03:46;;;;;;;16.48;5.63;;;9.30;48.40;;;;;;5138054;27;20015;-68
2021/04/23 06:06:11;;;;;;;30.42;5.90;;;9.40;48.50;;;;;;5133072;27;20023;-68
2021/04/23 06:08:37;;;;;;;22.38;5.10;;;9.40;48.50;;;;;;5139468;27;20487;-68
2021/04/23 06:11:05;;;;;;;12.48;4.55;;;9.50;48.50;;;;;;5133644;27;20039;-68
2021/04/23 06:13:30;;;;;;;15.18;4.25;;;9.60;48.30;;;;;;5132141;27;20118;-68
2021/04/23 06:15:56;;;;;;;15.93;4.47;;;9.60;48.20;;;;;;5133098;27;20164;-68
2021/04/23 06:18:22;;;;;;;9.07;3.58;;;9.70;48.20;;;;;;5133249;27;20027;-68
2021/04/23 06:20:48;;;;;;;17.92;6.13;;;9.80;48.10;;;;;;5133480;27;20027;-68
2021/04/23 06:23:15;;;;;;;17.98;6.50;;;9.90;47.70;;;;;;5136369;27;20046;-68
2021/04/23 06:25:40;;;;;;;17.50;6.30;;;10.00;47.40;;;;;;5137447;27;20027;-68
2021/04/23 06:28:07;;;;;;;28.98;6.50;;;10.00;47.30;;;;;;5137431;27;20031;-68
2021/04/23 06:30:35;;;;;;;13.95;6.15;;;10.10;47.30;;;;;;5137200;27;20033;-68
2021/04/23 06:33:08;;;;;;;20.05;5.65;;;10.20;47.30;;;;;;5137972;27;20135;-68
2021/04/23 06:35:34;;;;;;;14.75;6.15;;;10.20;47.20;;;;;;5136770;27;20080;-68
2021/04/23 06:37:59;;;;;;;23.85;7.85;;;10.30;46.90;;;;;;5137156;27;20019;-68
2021/04/23 06:40:26;;;;;;;16.88;7.55;;;10.40;46.80;;;;;;5137031;27;20106;-68
2021/04/23 06:42:52;;;;;;;15.15;6.05;;;10.40;46.40;;;;;;5137253;27;20472;-68
2021/04/23 06:45:20;;;;;;;24.20;6.75;;;10.50;46.30;;;;;;5137184;27;20507;-68
2021/04/23 06:47:47;;;;;;;23.00;8.00;;;10.60;46.30;;;;;;5136905;27;20521;-68
2021/04/23 06:50:17;;;;;;;25.35;6.65;;;10.70;46.50;;;;;;5136969;27;20027;-68
2021/04/23 06:52:43;;;;;;;27.88;9.20;;;10.70;46.20;;;;;;5136796;27;20385;-68
2021/04/23 06:55:11;;;;;;;27.38;7.82;;;10.80;45.80;;;;;;5136784;27;20034;-68
2021/04/23 06:57:37;;;;;;;23.00;8.15;;;10.90;45.70;;;;;;5146790;27;20175;-68
2021/04/23 07:00:09;;;;;;;22.52;7.47;;;10.90;45.70;;;;;;5157137;27;20026;-68
2021/04/23 07:02:35;;;;;;;24.40;8.25;;;11.00;45.70;;;;;;5156141;27;20018;-68
2021/04/23 07:05:01;;;;;;;35.88;9.57;;;11.10;45.40;;;;;;5151324;27;20034;-68
2021/04/23 07:07:26;;;;;;;32.50;9.30;;;11.20;45.30;;;;;;5136474;27;20174;-68
2021/04/23 07:09:53;;;;;;;26.85;8.48;;;11.20;45.10;;;;;;5136641;27;20027;-68
2021/04/23 07:12:19;;;;;;;26.05;8.65;;;11.30;45.30;;;;;;5136551;27;20099;-68
2021/04/23 07:14:44;;;;;;;20.98;8.60;;;11.30;45.10;;;;;;5136497;27;20031;-68
2021/04/23 07:17:11;;;;;;;22.08;7.80;;;11.40;45.00;;;;;;5139144;27;20481;-68
2021/04/23 07:19:38;;;;;;;23.70;8.77;;;11.50;45.00;;;;;;5156986;27;20376;-69
2021/04/23 07:22:05;;;;;;;19.67;8.15;;;11.50;44.80;;;;;;5132831;27;20103;-69
2021/04/23 07:24:32;;;;;;;22.90;7.22;;;11.60;44.80;;;;;;5131413;27;20362;-69
2021/04/23 07:26:58;;;;;;;19.27;7.50;;;11.70;44.70;;;;;;5115240;28;20072;-68
2021/04/23 07:29:24;;;;;;;18.88;7.50;;;11.80;44.50;;;;;;5115391;28;20079;-69
2021/04/23 07:31:50;;;;;;;18.38;7.28;;;11.80;44.20;;;;;;5123455;27;20094;-69
2021/04/23 07:34:16;;;;;;;20.85;7.65;;;11.90;44.30;;;;;;5135592;27;20062;-69
2021/04/23 07:36:42;;;;;;;20.70;7.05;;;12.00;44.30;;;;;;5135754;27;20027;-69
2021/04/23 07:39:10;;;;;;;13.02;5.63;;;12.00;44.00;;;;;;5135699;27;20500;-69
2021/04/23 07:41:39;;;;;;;15.13;5.80;;;12.10;43.50;;;;;;5135924;27;20376;-69
2021/04/23 07:44:05;;;;;;;16.95;5.40;;;12.20;43.50;;;;;;5135768;27;20115;-68
2021/04/23 07:46:31;;;;;;;20.30;6.68;;;12.30;43.30;;;;;;5135755;27;20152;-69
2021/04/23 07:48:57;;;;;;;12.63;4.78;;;12.30;42.90;;;;;;5135620;27;20110;-68
2021/04/23 07:51:23;;;;;;;8.15;3.92;;;12.40;42.40;;;;;;5135541;27;20515;-69
2021/04/23 07:53:49;;;;;;;13.30;4.03;;;12.50;41.90;;;;;;5135637;27;20518;-69
2021/04/23 07:56:15;;;;;;;16.30;3.90;;;12.60;41.20;;;;;;5135114;27;20472;-69
2021/04/23 07:58:41;;;;;;;11.68;3.67;;;12.60;40.30;;;;;;5135727;27;20499;-69
2021/04/23 08:01:06;;;;;;;12.63;3.55;;;12.70;40.40;;;;;;5136436;27;20030;-69
2021/04/23 08:03:32;;;;;;;14.10;4.97;;;12.80;40.10;;;;;;5135260;27;20096;-69
2021/04/23 08:05:59;;;;;;;8.13;3.65;;;12.90;40.20;;;;;;5133886;27;20471;-69
2021/04/23 08:08:25;;;;;;;12.32;3.67;;;13.00;39.90;;;;;;5133969;27;20030;-69
2021/04/23 08:10:51;;;;;;;23.58;4.70;;;13.00;40.00;;;;;;5135309;27;20092;-68
2021/04/23 08:13:17;;;;;;;14.57;4.50;;;13.10;39.10;;;;;;5135385;27;20476;-69
2021/04/23 08:15:43;;;;;;;17.38;3.72;;;13.20;38.70;;;;;;5139018;27;20372;-69
2021/04/23 08:18:08;;;;;;;11.43;4.00;;;13.30;38.90;;;;;;5135121;27;20020;-69
2021/04/23 08:20:35;;;;;;;11.32;3.95;;;13.40;38.70;;;;;;5133579;27;20031;-69
2021/04/23 08:23:00;;;;;;;17.15;4.35;;;13.40;38.70;;;;;;5146863;27;20047;-69
2021/04/23 08:25:27;;;;;;;9.15;3.45;;;13.50;38.40;;;;;;5145386;27;20240;-69
2021/04/23 08:27:53;;;;;;;11.63;3.63;;;13.50;37.70;;;;;;5134835;27;20076;-69
2021/04/23 08:30:23;;;;;;;22.63;5.03;;;13.60;37.70;;;;;;5133585;27;20026;-69
2021/04/23 08:32:49;;;;;;;11.30;4.10;;;13.60;37.10;;;;;;5148733;27;20031;-69
2021/04/23 08:35:15;;;;;;;11.45;4.50;;;13.70;36.60;;;;;;5145304;27;20148;-69
2021/04/23 08:37:42;;;;;;;17.25;4.45;;;13.80;36.40;;;;;;5134762;27;20067;-69
2021/04/23 08:40:11;;;;;;;15.65;5.05;;;13.80;36.30;;;;;;5142816;27;20029;-69
2021/04/23 08:42:37;;;;;;;10.02;3.22;;;13.90;36.10;;;;;;5155332;27;20023;-69
2021/04/23 08:45:09;;;;;;;11.02;3.33;;;13.90;36.40;;;;;;5153182;27;20053;-69
2021/04/23 08:47:38;;;;;;;10.40;3.15;;;14.00;36.10;;;;;;5134498;27;20026;-69
2021/04/23 08:50:05;;;;;;;16.88;4.20;;;14.10;36.40;;;;;;5134372;27;20473;-68
2021/04/23 08:52:32;;;;;;;13.57;3.53;;;14.10;35.60;;;;;;5144687;27;20061;-69
2021/04/23 08:54:58;;;;;;;13.10;4.10;;;14.20;35.90;;;;;;5153395;27;20026;-69
2021/04/23 08:57:25;;;;;;;11.50;4.10;;;14.30;35.70;;;;;;5137468;27;20515;-69
2021/04/23 08:59:51;;;;;;;12.18;3.70;;;14.30;35.50;;;;;;5132911;27;20407;-69
2021/04/23 09:02:16;;;;;;;19.52;4.72;;;14.40;35.40;;;;;;5143080;27;20033;-69
2021/04/23 09:04:42;;;;;;;10.25;4.00;;;14.40;35.30;;;;;;5137243;27;20426;-68
2021/04/23 09:07:08;;;;;;;9.57;4.07;;;14.50;35.40;;;;;;5130645;27;20086;-69
2021/04/23 09:09:40;;;;;;;11.38;3.90;;;14.50;34.90;;;;;;5132749;27;20392;-69
2021/04/23 09:12:19;;;;;;;9.63;3.95;;;14.50;35.10;;;;;;5134146;27;20529;-69
2021/04/23 09:14:47;;;;;;;10.13;3.55;;;14.60;35.10;;;;;;5133950;27;20047;-70
2021/04/23 09:17:18;;;;;;;13.77;3.92;;;14.70;35.40;;;;;;5132947;27;20030;-69
2021/04/23 09:19:44;;;;;;;12.15;3.85;;;14.80;34.80;;;;;;5124549;27;20027;-69
2021/04/23 09:22:22;;;;;;;10.55;3.80;;;14.80;35.10;;;;;;5129344;27;20024;-69
2021/04/23 09:25:04;;;;;;;11.63;4.25;;;14.90;35.10;;;;;;5120071;27;20015;-69
2021/04/23 09:27:35;;;;;;;13.13;4.78;;;15.00;34.90;;;;;;5113403;28;20015;-69
2021/04/23 09:30:07;;;;;;;15.35;5.32;;;15.00;34.90;;;;;;5118321;28;20033;-69
2021/04/23 09:32:38;;;;;;;14.75;5.05;;;15.10;34.90;;;;;;5133955;27;20023;-69
2021/04/23 09:35:05;;;;;;;15.48;4.75;;;15.10;34.50;;;;;;5133739;27;20114;-69
2021/04/23 09:37:41;;;;;;;12.00;4.43;;;15.20;34.50;;;;;;5133861;27;20515;-69
2021/04/23 09:40:14;;;;;;;12.75;4.35;;;15.20;34.60;;;;;;5133759;27;20035;-69
2021/04/23 09:42:43;;;;;;;9.88;4.32;;;15.30;34.50;;;;;;5133886;27;20020;-69
2021/04/23 09:45:09;;;;;;;10.13;4.10;;;15.30;34.10;;;;;;5133785;27;20042;-69
2021/04/23 09:47:36;;;;;;;19.42;4.88;;;15.40;34.00;;;;;;5133842;27;20030;-69
2021/04/23 09:50:05;;;;;;;14.32;4.53;;;15.40;33.80;;;;;;5117537;28;20430;-69
2021/04/23 09:52:31;;;;;;;14.38;4.07;;;15.40;33.90;;;;;;5113081;28;20044;-69
2021/04/23 09:55:04;;;;;;;9.13;3.88;;;15.50;33.80;;;;;;5113114;28;20031;-69
2021/04/23 09:57:36;;;;;;;10.70;3.58;;;15.50;33.60;;;;;;5132330;27;20113;-69
2021/04/23 10:00:11;;;;;;;13.57;3.78;;;15.60;33.50;;;;;;5137777;27;20015;-69
2021/04/23 10:02:37;;;;;;;9.27;4.18;;;15.60;32.90;;;;;;5137871;27;20778;-69
2021/04/23 10:05:05;;;;;;;15.15;4.07;;;15.70;33.00;;;;;;5137511;27;20365;-69
2021/04/23 10:07:34;;;;;;;9.90;3.00;;;15.70;32.60;;;;;;5137824;27;20023;-69
2021/04/23 10:10:09;;;;;;;14.60;4.28;;;15.70;32.80;;;;;;5137756;27;20026;-69
2021/04/23 10:12:41;;;;;;;6.80;3.38;;;15.70;32.30;;;;;;5137696;27;20388;-69
2021/04/23 10:15:12;;;;;;;10.82;3.75;;;15.80;32.80;;;;;;5136329;27;20064;-69
2021/04/23 10:17:39;;;;;;;12.48;3.70;;;15.80;32.80;;;;;;5137589;27;20353;-69
2021/04/23 10:20:07;;;;;;;9.75;3.55;;;15.90;32.90;;;;;;5137462;27;20384;-69
2021/04/23 10:22:33;;;;;;;9.40;4.10;;;15.90;32.30;;;;;;5137441;27;20094;-69
2021/04/23 10:24:59;;;;;;;12.18;4.45;;;16.00;32.40;;;;;;5137467;27;20152;-69
2021/04/23 10:27:24;;;;;;;10.70;4.07;;;16.00;32.20;;;;;;5131076;27;20032;-69
2021/04/23 10:29:53;;;;;;;10.02;3.88;;;16.00;31.50;;;;;;5125761;27;20034;-69
2021/04/23 10:32:20;;;;;;;12.63;3.15;;;16.00;31.40;;;;;;5137302;27;20023;-69
2021/04/23 10:34:47;;;;;;;8.00;3.58;;;16.10;31.50;;;;;;5131506;27;20387;-69
2021/04/23 10:37:13;;;;;;;14.55;4.30;;;16.20;31.90;;;;;;5137096;27;20054;-69
2021/04/23 10:39:47;;;;;;;14.18;4.47;;;16.30;31.10;;;;;;5135755;27;20055;-69
2021/04/23 10:42:42;;;;;;;10.50;3.80;;;16.40;31.20;;;;;;5134965;27;20349;-69
2021/04/23 10:45:40;;;;;;;10.45;4.60;;;16.50;31.50;;;;;;5135954;27;20384;-69
2021/04/23 10:48:11;;;;;;;8.65;3.67;;;16.50;30.30;;;;;;5136350;27;20023;-69
2021/04/23 10:50:45;;;;;;;12.10;4.07;;;16.60;30.30;;;;;;5135154;27;20047;-69
2021/04/23 10:53:13;;;;;;;13.17;4.03;;;16.60;30.00;;;;;;5135542;27;20026;-69
2021/04/23 10:55:48;;;;;;;14.13;4.15;;;16.60;30.30;;;;;;5135623;27;20476;-69
2021/04/23 10:58:25;;;;;;;15.65;3.88;;;16.60;30.00;;;;;;5133925;27;20023;-69
2021/04/23 11:00:53;;;;;;;7.60;3.47;;;16.70;30.20;;;;;;5135009;28;20034;-69
2021/04/23 11:03:34;;;;;;;13.38;3.83;;;16.70;30.10;;;;;;5135356;27;20026;-69
2021/04/23 11:06:27;;;;;;;10.40;3.70;;;16.70;30.00;;;;;;5133772;27;20488;-69
2021/04/23 11:08:59;;;;;;;8.55;3.05;;;16.70;29.50;;;;;;5132799;27;20111;-69
2021/04/23 11:11:32;;;;;;;10.70;3.75;;;16.70;29.70;;;;;;5135269;27;20026;-70
2021/04/23 11:14:36;;;;;;;11.95;3.22;;;16.80;29.70;;;;;;5136141;27;20058;-69
2021/04/23 11:17:17;;;;;;;10.02;3.40;;;16.80;29.90;;;;;;5095342;28;20066;-69
2021/04/23 11:19:50;;;;;;;8.48;2.78;;;16.80;29.40;;;;;;5095525;28;20066;-69
2021/04/23 11:22:19;;;;;;;9.15;3.45;;;16.90;29.60;;;;;;5089939;28;20044;-69
2021/04/23 11:25:03;;;;;;;10.60;3.92;;;16.90;29.40;;;;;;5091362;28;20024;-69
2021/04/23 11:27:29;;;;;;;14.93;4.40;;;16.90;29.50;;;;;;5091626;28;20028;-69
2021/04/23 11:29:56;;;;;;;9.05;3.70;;;16.90;29.00;;;;;;5091412;28;20046;-69
2021/04/23 11:32:24;;;;;;;9.05;3.65;;;17.00;29.40;;;;;;5091382;28;20031;-69
2021/04/23 11:35:08;;;;;;;17.80;4.15;;;17.00;29.40;;;;;;5090766;28;20435;-69
2021/04/23 11:37:42;;;;;;;13.18;4.40;;;17.00;29.10;;;;;;5091513;28;20044;-69
2021/04/23 11:40:28;;;;;;;16.27;4.90;;;17.00;28.80;;;;;;5091748;28;20131;-69
2021/04/23 11:43:02;;;;;;;13.15;4.38;;;17.00;28.50;;;;;;5092503;28;20115;-69
2021/04/23 11:45:35;;;;;;;8.93;4.07;;;17.10;28.70;;;;;;5090615;28;20028;-69
2021/04/23 11:48:09;;;;;;;12.30;4.50;;;17.10;28.90;;;;;;5090930;28;20028;-69
2021/04/23 11:50:41;;;;;;;7.68;3.97;;;17.10;28.80;;;;;;5073032;27;790228;-69
2021/04/23 11:53:12;;;;;;;16.00;4.20;;;17.20;29.00;;;;;;5128631;27;20019;-70
2021/04/23 11:55:47;;;;;;;9.75;4.78;;;17.20;29.10;;;;;;5128744;27;20027;-69
2021/04/23 11:58:16;;;;;;;;;;;17.30;29.00;;;;;;5136086;27;20462;-67
2021/04/23 12:00:47;;;;;;;8.10;4.20;;;17.40;29.70;;;;;;5124356;27;19919;-68
2021/04/23 12:03:16;;;;;;;14.80;4.22;;;17.40;29.20;;;;;;5133993;27;20498;-69
2021/04/23 12:05:46;;;;;;;13.82;4.43;;;17.40;29.10;;;;;;5135169;27;20030;-69
2021/04/23 12:08:19;;;;;;;12.10;5.03;;;17.50;29.20;;;;;;5138607;27;20031;-70
2021/04/23 12:10:58;;;;;;;13.60;4.60;;;17.50;29.00;;;;;;5115766;27;20027;-68
2021/04/23 12:13:29;;;;;;;10.23;4.80;;;17.50;28.70;;;;;;5131590;27;20027;-68
2021/04/23 12:15:58;;;;;;;12.02;5.20;;;17.60;28.80;;;;;;5127373;27;20089;-68
2021/04/23 12:18:25;;;;;;;18.08;4.40;;;17.60;29.00;;;;;;5138321;27;20034;-69
2021/04/23 12:20:54;;;;;;;9.57;4.00;;;17.60;28.80;;;;;;5125666;27;20068;-69
2021/04/23 12:23:25;;;;;;;14.48;4.63;;;17.70;28.70;;;;;;5135228;27;20032;-68
2021/04/23 12:26:05;;;;;;;9.90;4.55;;;17.80;28.40;;;;;;5153894;27;20102;-67
2021/04/23 12:28:35;;;;;;;9.43;4.68;;;17.80;28.60;;;;;;5155606;27;20019;-69
2021/04/23 12:31:23;;;;;;;9.88;4.35;;;17.90;28.20;;;;;;5144580;27;20015;-69
2021/04/23 12:33:51;;;;;;;10.32;4.97;;;17.90;28.00;;;;;;5131145;27;20023;-69
2021/04/23 12:36:27;;;;;;;10.02;4.13;;;17.90;27.80;;;;;;5131219;27;20076;-70
2021/04/23 12:39:15;;;;;;;10.20;4.35;;;18.00;28.00;;;;;;5135602;27;20475;-70
2021/04/23 12:41:47;;;;;;;14.20;4.80;;;18.10;27.70;;;;;;5124889;27;20067;-70
2021/04/23 12:44:16;;;;;;;15.20;4.47;;;18.10;27.50;;;;;;5127088;27;20031;-71
2021/04/23 12:46:48;;;;;;;13.07;4.20;;;18.10;27.40;;;;;;5136247;27;20022;-69
2021/04/23 12:49:34;;;;;;;10.13;4.22;;;18.10;27.40;;;;;;5134476;27;20488;-70
2021/04/23 12:52:05;;;;;;;14.40;4.45;;;18.10;27.50;;;;;;5128034;27;20086;-69
2021/04/23 12:54:39;;;;;;;10.73;4.07;;;18.10;27.20;;;;;;5132689;27;20027;-69